TAF Text Data
IDs:
Format:
Raw Decoded Include METAR

Data at: 1428 UTC 10 Jul 2020

KBTV 101120Z 1012/1112 18007KT P6SM SKC
  FM102000 18008KT P6SM BKN200
  FM110400 13006KT P6SM VCSH OVC060
  FM110600 12006KT 4SM -SHRA BR BKN030